sensor_id;sensor_type;location;lat;lon;timestamp;temperature;humidity
18341;DHT22;9296;48.084;16.352;2023-03-01T00:03:23;0.30;99.90
18341;DHT22;9296;48.084;16.352;2023-03-01T00:05:51;0.20;99.90
18341;DHT22;9296;48.084;16.352;2023-03-01T00:08:19;0.20;99.90
18341;DHT22;9296;48.084;16.352;2023-03-01T00:10:46;0.20;99.90
18341;DHT22;9296;48.084;16.352;2023-03-01T00:13:13;0.20;99.90
18341;DHT22;9296;48.084;16.352;2023-03-01T00:15:40;0.20;99.90
18341;DHT22;9296;48.084;16.352;2023-03-01T00:18:08;0.20;99.90
18341;DHT22;9296;48.084;16.352;2023-03-01T00:20:35;0.20;99.90
18341;DHT22;9296;48.084;16.352;2023-03-01T00:23:01;0.30;99.90
18341;DHT22;9296;48.084;16.352;2023-03-01T00:25:30;0.20;99.90
18341;DHT22;9296;48.084;16.352;2023-03-01T00:34:40;0.30;99.90
18341;DHT22;9296;48.084;16.352;2023-03-01T00:37:07;0.30;99.90
18341;DHT22;9296;48.084;16.352;2023-03-01T00:39:34;0.30;99.90
18341;DHT22;9296;48.084;16.352;2023-03-01T00:42:03;0.30;99.90
18341;DHT22;9296;48.084;16.352;2023-03-01T00:45:07;0.30;99.90
18341;DHT22;9296;48.084;16.352;2023-03-01T00:47:34;0.40;99.90
18341;DHT22;9296;48.084;16.352;2023-03-01T00:50:01;0.40;99.90
18341;DHT22;9296;48.084;16.352;2023-03-01T00:52:28;0.50;99.90
18341;DHT22;9296;48.084;16.352;2023-03-01T00:54:55;0.50;99.90
18341;DHT22;9296;48.084;16.352;2023-03-01T00:57:24;0.60;99.90
18341;DHT22;9296;48.084;16.352;2023-03-01T01:03:14;0.70;99.90
18341;DHT22;9296;48.084;16.352;2023-03-01T01:05:41;0.70;99.90
18341;DHT22;9296;48.084;16.352;2023-03-01T01:08:08;0.60;99.90
18341;DHT22;9296;48.084;16.352;2023-03-01T01:10:35;0.60;99.90
18341;DHT22;9296;48.084;16.352;2023-03-01T01:19:47;0.60;99.90
18341;DHT22;9296;48.084;16.352;2023-03-01T01:22:13;0.70;99.90
18341;DHT22;9296;48.084;16.352;2023-03-01T01:24:40;0.80;99.90
18341;DHT22;9296;48.084;16.352;2023-03-01T01:27:07;0.70;99.90
18341;DHT22;9296;48.084;16.352;2023-03-01T01:32:55;0.80;99.90
18341;DHT22;9296;48.084;16.352;2023-03-01T01:35:24;0.90;99.90
18341;DHT22;9296;48.084;16.352;2023-03-01T01:37:51;0.90;99.90
18341;DHT22;9296;48.084;16.352;2023-03-01T01:40:18;1.00;99.90
18341;DHT22;9296;48.084;16.352;2023-03-01T01:42:45;1.00;99.90
18341;DHT22;9296;48.084;16.352;2023-03-01T01:48:39;1.20;99.90
18341;DHT22;9296;48.084;16.352;2023-03-01T01:51:13;1.20;99.90
18341;DHT22;9296;48.084;16.352;2023-03-01T01:53:40;1.40;99.90
18341;DHT22;9296;48.084;16.352;2023-03-01T01:56:10;1.20;99.90
18341;DHT22;9296;48.084;16.352;2023-03-01T01:58:39;1.30;99.90
18341;DHT22;9296;48.084;16.352;2023-03-01T02:01:07;1.30;99.90
18341;DHT22;9296;48.084;16.352;2023-03-01T02:03:37;1.30;99.90
18341;DHT22;9296;48.084;16.352;2023-03-01T02:06:18;1.40;99.90
18341;DHT22;9296;48.084;16.352;2023-03-01T02:08:48;1.30;99.90
18341;DHT22;9296;48.084;16.352;2023-03-01T02:11:17;1.30;99.90
18341;DHT22;9296;48.084;16.352;2023-03-01T02:13:47;1.40;99.90
18341;DHT22;9296;48.084;16.352;2023-03-01T02:16:15;1.40;99.90
18341;DHT22;9296;48.084;16.352;2023-03-01T02:18:43;1.40;99.90
18341;DHT22;9296;48.084;16.352;2023-03-01T02:21:26;1.20;99.90
18341;DHT22;9296;48.084;16.352;2023-03-01T02:23:58;1.20;99.90
18341;DHT22;9296;48.084;16.352;2023-03-01T02:26:31;1.20;99.90
18341;DHT22;9296;48.084;16.352;2023-03-01T02:29:02;1.30;99.90
18341;DHT22;9296;48.084;16.352;2023-03-01T02:31:31;1.30;99.90
18341;DHT22;9296;48.084;16.352;2023-03-01T02:34:13;1.30;99.90
18341;DHT22;9296;48.084;16.352;2023-03-01T02:36:43;1.60;99.90
18341;DHT22;9296;48.084;16.352;2023-03-01T02:39:15;1.30;99.90
18341;DHT22;9296;48.084;16.352;2023-03-01T02:41:46;1.30;99.90
18341;DHT22;9296;48.084;16.352;2023-03-01T02:47:41;1.20;99.90
18341;DHT22;9296;48.084;16.352;2023-03-01T02:50:22;1.30;99.90
18341;DHT22;9296;48.084;16.352;2023-03-01T02:52:59;1.30;99.90
18341;DHT22;9296;48.084;16.352;2023-03-01T02:55:28;1.40;99.90
18341;DHT22;9296;48.084;16.352;2023-03-01T02:57:56;1.40;99.90
18341;DHT22;9296;48.084;16.352;2023-03-01T03:03:46;1.50;99.90
18341;DHT22;9296;48.084;16.352;2023-03-01T03:06:13;1.50;99.90
18341;DHT22;9296;48.084;16.352;2023-03-01T03:08:40;1.50;99.90
18341;DHT22;9296;48.084;16.352;2023-03-01T03:11:07;1.50;99.90
18341;DHT22;9296;48.084;16.352;2023-03-01T03:20:13;1.70;99.90
18341;DHT22;9296;48.084;16.352;2023-03-01T03:22:44;1.60;99.90
18341;DHT22;9296;48.084;16.352;2023-03-01T03:25:11;1.50;99.90
18341;DHT22;9296;48.084;16.352;2023-03-01T03:27:40;1.50;99.90
18341;DHT22;9296;48.084;16.352;2023-03-01T03:33:13;1.40;99.90
18341;DHT22;9296;48.084;16.352;2023-03-01T03:35:43;1.50;99.90
18341;DHT22;9296;48.084;16.352;2023-03-01T03:38:12;1.40;99.90
18341;DHT22;9296;48.084;16.352;2023-03-01T03:40:45;1.40;99.90
18341;DHT22;9296;48.084;16.352;2023-03-01T03:43:14;1.50;99.90
18341;DHT22;9296;48.084;16.352;2023-03-01T03:49:03;1.50;99.90
18341;DHT22;9296;48.084;16.352;2023-03-01T03:51:31;1.50;99.90
18341;DHT22;9296;48.084;16.352;2023-03-01T03:53:58;1.60;99.90
18341;DHT22;9296;48.084;16.352;2023-03-01T03:56:25;1.50;99.90
18341;DHT22;9296;48.084;16.352;2023-03-01T04:01:59;1.50;99.90
18341;DHT22;9296;48.084;16.352;2023-03-01T04:04:26;1.50;99.90
18341;DHT22;9296;48.084;16.352;2023-03-01T04:06:54;1.60;99.90
18341;DHT22;9296;48.084;16.352;2023-03-01T04:09:21;1.60;99.90
18341;DHT22;9296;48.084;16.352;2023-03-01T04:11:48;1.60;99.90
18341;DHT22;9296;48.084;16.352;2023-03-01T04:14:15;1.90;99.90
18341;DHT22;9296;48.084;16.352;2023-03-01T04:16:42;1.70;99.90
18341;DHT22;9296;48.084;16.352;2023-03-01T04:19:09;1.70;99.90
18341;DHT22;9296;48.084;16.352;2023-03-01T04:21:36;1.70;99.90
18341;DHT22;9296;48.084;16.352;2023-03-01T04:24:05;1.70;99.90
18341;DHT22;9296;48.084;16.352;2023-03-01T04:26:32;1.70;99.90
18341;DHT22;9296;48.084;16.352;2023-03-01T04:32:52;1.70;99.90
18341;DHT22;9296;48.084;16.352;2023-03-01T04:35:18;1.80;99.90
18341;DHT22;9296;48.084;16.352;2023-03-01T04:37:46;1.80;99.90
18341;DHT22;9296;48.084;16.352;2023-03-01T04:40:14;1.90;99.90
18341;DHT22;9296;48.084;16.352;2023-03-01T04:42:42;1.90;99.90
18341;DHT22;9296;48.084;16.352;2023-03-01T04:48:31;1.90;99.90
18341;DHT22;9296;48.084;16.352;2023-03-01T04:50:59;1.90;99.90
18341;DHT22;9296;48.084;16.352;2023-03-01T04:53:26;2.00;99.90
18341;DHT22;9296;48.084;16.352;2023-03-01T04:55:55;2.00;99.90
18341;DHT22;9296;48.084;16.352;2023-03-01T04:58:23;2.00;99.90
18341;DHT22;9296;48.084;16.352;2023-03-01T05:04:11;1.90;99.90
18341;DHT22;9296;48.084;16.352;2023-03-01T05:06:39;1.80;99.90
18341;DHT22;9296;48.084;16.352;2023-03-01T05:09:06;1.80;99.90
18341;DHT22;9296;48.084;16.352;2023-03-01T05:11:34;1.80;99.90
18341;DHT22;9296;48.084;16.352;2023-03-01T05:18:01;1.90;99.90
18341;DHT22;9296;48.084;16.352;2023-03-01T05:20:28;2.00;99.90
18341;DHT22;9296;48.084;16.352;2023-03-01T05:22:57;2.00;99.90
18341;DHT22;9296;48.084;16.352;2023-03-01T05:25:25;2.00;99.90
18341;DHT22;9296;48.084;16.352;2023-03-01T05:27:54;2.00;99.90
18341;DHT22;9296;48.084;16.352;2023-03-01T05:33:42;1.80;99.90
18341;DHT22;9296;48.084;16.352;2023-03-01T05:36:10;1.80;99.90
18341;DHT22;9296;48.084;16.352;2023-03-01T05:38:37;1.70;99.90
18341;DHT22;9296;48.084;16.352;2023-03-01T05:41:04;1.80;99.90
18341;DHT22;9296;48.084;16.352;2023-03-01T05:43:32;1.70;99.90
18341;DHT22;9296;48.084;16.352;2023-03-01T05:46:00;1.70;99.90
18341;DHT22;9296;48.084;16.352;2023-03-01T05:48:27;1.70;99.90
18341;DHT22;9296;48.084;16.352;2023-03-01T05:50:54;2.10;99.90
18341;DHT22;9296;48.084;16.352;2023-03-01T05:53:21;1.80;99.90
18341;DHT22;9296;48.084;16.352;2023-03-01T05:55:48;1.80;99.90
18341;DHT22;9296;48.084;16.352;2023-03-01T05:58:18;1.90;99.90
18341;DHT22;9296;48.084;16.352;2023-03-01T06:04:08;2.00;99.90
18341;DHT22;9296;48.084;16.352;2023-03-01T06:06:35;2.10;99.90
18341;DHT22;9296;48.084;16.352;2023-03-01T06:09:03;2.20;99.90
18341;DHT22;9296;48.084;16.352;2023-03-01T06:11:30;2.20;99.90
18341;DHT22;9296;48.084;16.352;2023-03-01T06:13:57;2.30;99.90
18341;DHT22;9296;48.084;16.352;2023-03-01T06:16:24;2.30;99.90
18341;DHT22;9296;48.084;16.352;2023-03-01T06:18:51;2.40;99.90
18341;DHT22;9296;48.084;16.352;2023-03-01T06:21:19;2.50;99.90
18341;DHT22;9296;48.084;16.352;2023-03-01T06:23:46;2.30;99.90
18341;DHT22;9296;48.084;16.352;2023-03-01T06:26:13;2.20;99.90
18341;DHT22;9296;48.084;16.352;2023-03-01T06:28:39;2.20;99.90
18341;DHT22;9296;48.084;16.352;2023-03-01T06:31:06;2.30;99.90
18341;DHT22;9296;48.084;16.352;2023-03-01T06:33:34;2.40;99.90
18341;DHT22;9296;48.084;16.352;2023-03-01T06:36:03;2.50;99.90
18341;DHT22;9296;48.084;16.352;2023-03-01T06:38:31;2.40;99.90
18341;DHT22;9296;48.084;16.352;2023-03-01T06:40:58;2.40;99.90
18341;DHT22;9296;48.084;16.352;2023-03-01T06:43:25;2.40;99.90
18341;DHT22;9296;48.084;16.352;2023-03-01T06:45:52;2.50;99.90
18341;DHT22;9296;48.084;16.352;2023-03-01T06:48:18;2.50;99.90
18341;DHT22;9296;48.084;16.352;2023-03-01T06:50:45;2.50;99.90
18341;DHT22;9296;48.084;16.352;2023-03-01T06:53:12;2.50;99.90
18341;DHT22;9296;48.084;16.352;2023-03-01T06:55:41;2.60;99.90
18341;DHT22;9296;48.084;16.352;2023-03-01T06:58:08;2.70;99.90
18341;DHT22;9296;48.084;16.352;2023-03-01T07:00:35;2.70;99.90
18341;DHT22;9296;48.084;16.352;2023-03-01T07:03:02;2.70;99.90
18341;DHT22;9296;48.084;16.352;2023-03-01T07:05:30;2.70;99.90
18341;DHT22;9296;48.084;16.352;2023-03-01T07:07:57;2.70;99.90
18341;DHT22;9296;48.084;16.352;2023-03-01T07:10:24;2.70;99.90
18341;DHT22;9296;48.084;16.352;2023-03-01T07:12:54;2.70;99.90
18341;DHT22;9296;48.084;16.352;2023-03-01T07:15:58;2.70;99.90
18341;DHT22;9296;48.084;16.352;2023-03-01T07:18:25;2.70;99.90
18341;DHT22;9296;48.084;16.352;2023-03-01T07:20:52;2.70;99.90
18341;DHT22;9296;48.084;16.352;2023-03-01T07:23:19;2.60;99.90
18341;DHT22;9296;48.084;16.352;2023-03-01T07:25:51;2.50;99.90
18341;DHT22;9296;48.084;16.352;2023-03-01T07:28:20;2.60;99.90
18341;DHT22;9296;48.084;16.352;2023-03-01T07:30:47;2.60;99.90
18341;DHT22;9296;48.084;16.352;2023-03-01T07:33:13;2.70;99.90
18341;DHT22;9296;48.084;16.352;2023-03-01T07:35:40;2.70;99.90
18341;DHT22;9296;48.084;16.352;2023-03-01T07:38:07;2.70;99.90
18341;DHT22;9296;48.084;16.352;2023-03-01T07:40:34;2.80;99.90
18341;DHT22;9296;48.084;16.352;2023-03-01T07:43:01;2.90;99.90
18341;DHT22;9296;48.084;16.352;2023-03-01T07:48:52;3.10;99.90
18341;DHT22;9296;48.084;16.352;2023-03-01T07:51:19;3.20;99.90
18341;DHT22;9296;48.084;16.352;2023-03-01T07:53:46;3.20;99.90
18341;DHT22;9296;48.084;16.352;2023-03-01T07:56:15;3.40;99.90
18341;DHT22;9296;48.084;16.352;2023-03-01T07:58:44;3.20;99.90
18341;DHT22;9296;48.084;16.352;2023-03-01T08:04:34;3.30;99.90
18341;DHT22;9296;48.084;16.352;2023-03-01T08:07:04;3.30;99.90
18341;DHT22;9296;48.084;16.352;2023-03-01T08:09:33;3.20;99.90
18341;DHT22;9296;48.084;16.352;2023-03-01T08:12:00;3.40;99.90
18341;DHT22;9296;48.084;16.352;2023-03-01T08:14:27;3.50;99.90
18341;DHT22;9296;48.084;16.352;2023-03-01T08:16:54;3.50;99.90
18341;DHT22;9296;48.084;16.352;2023-03-01T08:19:21;3.50;99.90
18341;DHT22;9296;48.084;16.352;2023-03-01T08:21:50;3.70;99.90
18341;DHT22;9296;48.084;16.352;2023-03-01T08:24:17;4.00;99.90
18341;DHT22;9296;48.084;16.352;2023-03-01T08:26:43;4.30;99.90
18341;DHT22;9296;48.084;16.352;2023-03-01T08:29:11;4.50;99.90
18341;DHT22;9296;48.084;16.352;2023-03-01T08:31:58;4.40;99.90
18341;DHT22;9296;48.084;16.352;2023-03-01T08:34:25;4.40;99.90
18341;DHT22;9296;48.084;16.352;2023-03-01T08:36:53;4.30;99.90
18341;DHT22;9296;48.084;16.352;2023-03-01T08:39:20;4.40;99.90
18341;DHT22;9296;48.084;16.352;2023-03-01T08:41:47;4.50;99.90
18341;DHT22;9296;48.084;16.352;2023-03-01T08:44:15;4.70;99.90
18341;DHT22;9296;48.084;16.352;2023-03-01T08:50:06;5.50;99.90
18341;DHT22;9296;48.084;16.352;2023-03-01T08:52:34;5.80;99.90
18341;DHT22;9296;48.084;16.352;2023-03-01T08:55:01;6.10;99.90
18341;DHT22;9296;48.084;16.352;2023-03-01T08:57:28;6.40;99.90
18341;DHT22;9296;48.084;16.352;2023-03-01T08:59:55;6.60;99.90
18341;DHT22;9296;48.084;16.352;2023-03-01T09:02:22;6.30;99.90
18341;DHT22;9296;48.084;16.352;2023-03-01T09:04:49;6.40;99.90
18341;DHT22;9296;48.084;16.352;2023-03-01T09:07:16;6.70;99.90
18341;DHT22;9296;48.084;16.352;2023-03-01T09:09:44;7.10;99.90
18341;DHT22;9296;48.084;16.352;2023-03-01T09:12:11;6.90;99.90
18341;DHT22;9296;48.084;16.352;2023-03-01T09:14:38;6.70;99.90
18341;DHT22;9296;48.084;16.352;2023-03-01T09:17:06;6.60;99.90
18341;DHT22;9296;48.084;16.352;2023-03-01T09:19:33;6.80;99.90
18341;DHT22;9296;48.084;16.352;2023-03-01T09:22:00;6.90;99.90
18341;DHT22;9296;48.084;16.352;2023-03-01T09:24:27;6.90;99.90
18341;DHT22;9296;48.084;16.352;2023-03-01T09:26:56;6.80;99.90
18341;DHT22;9296;48.084;16.352;2023-03-01T09:29:24;6.60;99.90
18341;DHT22;9296;48.084;16.352;2023-03-01T09:32:09;6.80;99.90
18341;DHT22;9296;48.084;16.352;2023-03-01T09:34:36;7.10;99.90
18341;DHT22;9296;48.084;16.352;2023-03-01T09:37:23;7.30;99.90
18341;DHT22;9296;48.084;16.352;2023-03-01T09:39:50;7.40;99.90
18341;DHT22;9296;48.084;16.352;2023-03-01T09:42:18;7.20;99.90
18341;DHT22;9296;48.084;16.352;2023-03-01T09:44:49;7.10;99.90
18341;DHT22;9296;48.084;16.352;2023-03-01T09:47:19;6.70;99.90
18341;DHT22;9296;48.084;16.352;2023-03-01T09:49:56;6.50;99.90
18341;DHT22;9296;48.084;16.352;2023-03-01T09:52:30;6.40;99.90
18341;DHT22;9296;48.084;16.352;2023-03-01T09:55:00;6.70;99.90
18341;DHT22;9296;48.084;16.352;2023-03-01T09:57:35;6.80;99.90
18341;DHT22;9296;48.084;16.352;2023-03-01T10:00:13;6.70;99.90
18341;DHT22;9296;48.084;16.352;2023-03-01T10:02:46;6.50;99.90
18341;DHT22;9296;48.084;16.352;2023-03-01T10:05:38;6.40;99.90
18341;DHT22;9296;48.084;16.352;2023-03-01T10:08:30;6.60;99.90
18341;DHT22;9296;48.084;16.352;2023-03-01T10:11:02;7.00;99.90
18341;DHT22;9296;48.084;16.352;2023-03-01T10:13:34;7.20;99.90
18341;DHT22;9296;48.084;16.352;2023-03-01T10:16:23;7.40;99.90
18341;DHT22;9296;48.084;16.352;2023-03-01T10:18:55;7.80;99.90
18341;DHT22;9296;48.084;16.352;2023-03-01T10:21:26;8.50;99.90
18341;DHT22;9296;48.084;16.352;2023-03-01T10:23:53;8.70;99.90
18341;DHT22;9296;48.084;16.352;2023-03-01T10:26:35;9.40;99.90
18341;DHT22;9296;48.084;16.352;2023-03-01T10:29:08;10.20;99.90
18341;DHT22;9296;48.084;16.352;2023-03-01T10:31:39;10.90;99.90
18341;DHT22;9296;48.084;16.352;2023-03-01T10:34:10;11.00;98.60
18341;DHT22;9296;48.084;16.352;2023-03-01T10:36:39;11.40;97.40
18341;DHT22;9296;48.084;16.352;2023-03-01T10:39:13;11.70;97.50
18341;DHT22;9296;48.084;16.352;2023-03-01T10:41:56;11.70;95.20
18341;DHT22;9296;48.084;16.352;2023-03-01T10:44:42;11.60;96.40
18341;DHT22;9296;48.084;16.352;2023-03-01T10:50:32;11.50;93.80
18341;DHT22;9296;48.084;16.352;2023-03-01T10:53:00;11.20;94.90
18341;DHT22;9296;48.084;16.352;2023-03-01T10:55:31;11.20;96.10
18341;DHT22;9296;48.084;16.352;2023-03-01T10:58:08;11.10;94.80
18341;DHT22;9296;48.084;16.352;2023-03-01T11:00:49;10.60;95.30
18341;DHT22;9296;48.084;16.352;2023-03-01T11:03:19;10.50;95.50
18341;DHT22;9296;48.084;16.352;2023-03-01T11:05:54;10.30;95.00
18341;DHT22;9296;48.084;16.352;2023-03-01T11:08:33;10.20;95.90
18341;DHT22;9296;48.084;16.352;2023-03-01T11:11:06;10.00;95.80
18341;DHT22;9296;48.084;16.352;2023-03-01T11:13:33;10.10;95.70
18341;DHT22;9296;48.084;16.352;2023-03-01T11:16:31;10.30;96.90
18341;DHT22;9296;48.084;16.352;2023-03-01T11:19:03;10.60;95.60
18341;DHT22;9296;48.084;16.352;2023-03-01T11:21:33;10.70;96.00
18341;DHT22;9296;48.084;16.352;2023-03-01T11:24:02;10.80;94.80
18341;DHT22;9296;48.084;16.352;2023-03-01T11:26:35;10.20;95.20
18341;DHT22;9296;48.084;16.352;2023-03-01T11:29:11;9.90;95.70
18341;DHT22;9296;48.084;16.352;2023-03-01T11:35:08;10.20;95.50
18341;DHT22;9296;48.084;16.352;2023-03-01T11:37:41;10.30;96.50
18341;DHT22;9296;48.084;16.352;2023-03-01T11:40:23;10.80;95.20
18341;DHT22;9296;48.084;16.352;2023-03-01T11:42:59;10.50;94.90
18341;DHT22;9296;48.084;16.352;2023-03-01T11:52:04;9.50;96.70
18341;DHT22;9296;48.084;16.352;2023-03-01T11:54:45;9.60;97.00
18341;DHT22;9296;48.084;16.352;2023-03-01T11:57:24;9.60;97.20
18341;DHT22;9296;48.084;16.352;2023-03-01T12:06:38;9.70;97.50
18341;DHT22;9296;48.084;16.352;2023-03-01T12:09:20;9.80;97.30
18341;DHT22;9296;48.084;16.352;2023-03-01T12:15:04;9.80;97.20
18341;DHT22;9296;48.084;16.352;2023-03-01T12:21:01;9.70;97.50
18341;DHT22;9296;48.084;16.352;2023-03-01T12:26:27;10.00;98.30
18341;DHT22;9296;48.084;16.352;2023-03-01T12:29:06;10.30;97.30
18341;DHT22;9296;48.084;16.352;2023-03-01T12:32:09;10.30;97.30
18341;DHT22;9296;48.084;16.352;2023-03-01T12:37:39;9.90;97.70
18341;DHT22;9296;48.084;16.352;2023-03-01T12:40:39;10.00;97.70
18341;DHT22;9296;48.084;16.352;2023-03-01T12:43:24;9.70;97.80
18341;DHT22;9296;48.084;16.352;2023-03-01T12:49:17;9.90;98.80
18341;DHT22;9296;48.084;16.352;2023-03-01T12:51:53;10.20;98.00
18341;DHT22;9296;48.084;16.352;2023-03-01T12:54:25;10.40;97.80
18341;DHT22;9296;48.084;16.352;2023-03-01T12:56:53;10.60;97.40
18341;DHT22;9296;48.084;16.352;2023-03-01T12:59:26;10.70;97.50
18341;DHT22;9296;48.084;16.352;2023-03-01T13:02:18;10.60;97.10
18341;DHT22;9296;48.084;16.352;2023-03-01T13:04:58;10.20;97.40
18341;DHT22;9296;48.084;16.352;2023-03-01T13:07:33;10.10;98.00
18341;DHT22;9296;48.084;16.352;2023-03-01T13:10:14;10.00;98.50
18341;DHT22;9296;48.084;16.352;2023-03-01T13:12:50;9.70;98.60
18341;DHT22;9296;48.084;16.352;2023-03-01T13:15:35;9.70;98.70
18341;DHT22;9296;48.084;16.352;2023-03-01T13:18:07;9.80;98.70
18341;DHT22;9296;48.084;16.352;2023-03-01T13:20:54;9.70;99.20
18341;DHT22;9296;48.084;16.352;2023-03-01T13:23:28;9.90;99.00
18341;DHT22;9296;48.084;16.352;2023-03-01T13:26:08;9.90;99.20
18341;DHT22;9296;48.084;16.352;2023-03-01T13:34:55;9.80;99.40
18341;DHT22;9296;48.084;16.352;2023-03-01T13:37:32;9.90;99.50
18341;DHT22;9296;48.084;16.352;2023-03-01T13:40:56;9.80;99.80
18341;DHT22;9296;48.084;16.352;2023-03-01T13:42:53;9.90;99.80
18341;DHT22;9296;48.084;16.352;2023-03-01T13:45:23;10.00;99.80
18341;DHT22;9296;48.084;16.352;2023-03-01T13:47:55;9.90;99.60
18341;DHT22;9296;48.084;16.352;2023-03-01T13:50:25;9.80;99.90
18341;DHT22;9296;48.084;16.352;2023-03-01T13:52:58;9.80;99.90
18341;DHT22;9296;48.084;16.352;2023-03-01T13:55:30;9.80;99.90
18341;DHT22;9296;48.084;16.352;2023-03-01T13:58:00;9.80;99.90
18341;DHT22;9296;48.084;16.352;2023-03-01T14:00:54;9.90;99.90
18341;DHT22;9296;48.084;16.352;2023-03-01T14:03:21;10.10;99.90
18341;DHT22;9296;48.084;16.352;2023-03-01T14:05:59;10.10;99.90
18341;DHT22;9296;48.084;16.352;2023-03-01T14:08:30;10.30;99.90
18341;DHT22;9296;48.084;16.352;2023-03-01T14:14:17;10.30;99.90
18341;DHT22;9296;48.084;16.352;2023-03-01T14:16:54;10.40;99.90
18341;DHT22;9296;48.084;16.352;2023-03-01T14:19:27;10.20;99.90
18341;DHT22;9296;48.084;16.352;2023-03-01T14:22:07;10.10;99.90
18341;DHT22;9296;48.084;16.352;2023-03-01T14:24:46;10.00;99.90
18341;DHT22;9296;48.084;16.352;2023-03-01T14:27:15;9.90;99.90
18341;DHT22;9296;48.084;16.352;2023-03-01T14:29:43;9.90;99.90
18341;DHT22;9296;48.084;16.352;2023-03-01T14:32:15;9.80;99.90
18341;DHT22;9296;48.084;16.352;2023-03-01T14:34:46;9.90;99.90
18341;DHT22;9296;48.084;16.352;2023-03-01T14:37:22;9.80;99.90
18341;DHT22;9296;48.084;16.352;2023-03-01T14:39:52;9.80;99.90
18341;DHT22;9296;48.084;16.352;2023-03-01T14:42:21;9.70;99.90
18341;DHT22;9296;48.084;16.352;2023-03-01T14:44:50;9.70;99.90
18341;DHT22;9296;48.084;16.352;2023-03-01T14:47:25;9.60;99.90
18341;DHT22;9296;48.084;16.352;2023-03-01T14:49:57;9.50;99.90
18341;DHT22;9296;48.084;16.352;2023-03-01T14:52:31;9.60;99.90
18341;DHT22;9296;48.084;16.352;2023-03-01T14:55:02;9.50;99.90
18341;DHT22;9296;48.084;16.352;2023-03-01T14:57:30;9.40;99.90
18341;DHT22;9296;48.084;16.352;2023-03-01T14:59:59;9.60;99.90
18341;DHT22;9296;48.084;16.352;2023-03-01T15:02:30;9.50;99.90
18341;DHT22;9296;48.084;16.352;2023-03-01T15:04:58;9.50;99.90
18341;DHT22;9296;48.084;16.352;2023-03-01T15:07:30;9.60;99.90
18341;DHT22;9296;48.084;16.352;2023-03-01T15:09:58;9.60;99.90
18341;DHT22;9296;48.084;16.352;2023-03-01T15:12:38;9.60;99.90
18341;DHT22;9296;48.084;16.352;2023-03-01T15:15:32;9.60;99.90
18341;DHT22;9296;48.084;16.352;2023-03-01T15:18:01;9.50;99.90
18341;DHT22;9296;48.084;16.352;2023-03-01T15:20:29;9.30;99.90
18341;DHT22;9296;48.084;16.352;2023-03-01T15:23:01;9.30;99.90
18341;DHT22;9296;48.084;16.352;2023-03-01T15:25:30;9.10;99.90
18341;DHT22;9296;48.084;16.352;2023-03-01T15:27:59;9.10;99.90
18341;DHT22;9296;48.084;16.352;2023-03-01T15:30:29;9.00;99.90
18341;DHT22;9296;48.084;16.352;2023-03-01T15:33:37;9.00;99.90
18341;DHT22;9296;48.084;16.352;2023-03-01T15:36:31;9.00;99.90
18341;DHT22;9296;48.084;16.352;2023-03-01T15:38:59;9.00;99.90
18341;DHT22;9296;48.084;16.352;2023-03-01T15:41:28;9.00;99.90
18341;DHT22;9296;48.084;16.352;2023-03-01T15:43:59;9.00;99.90
18341;DHT22;9296;48.084;16.352;2023-03-01T15:46:46;9.00;99.90
18341;DHT22;9296;48.084;16.352;2023-03-01T15:49:27;9.00;99.90
18341;DHT22;9296;48.084;16.352;2023-03-01T15:51:56;9.00;99.90
18341;DHT22;9296;48.084;16.352;2023-03-01T15:54:25;8.90;99.90
18341;DHT22;9296;48.084;16.352;2023-03-01T15:56:52;8.90;99.90
18341;DHT22;9296;48.084;16.352;2023-03-01T15:59:20;8.90;99.90
18341;DHT22;9296;48.084;16.352;2023-03-01T16:01:48;8.80;99.90
18341;DHT22;9296;48.084;16.352;2023-03-01T16:04:17;8.80;99.90
18341;DHT22;9296;48.084;16.352;2023-03-01T16:06:49;8.80;99.90
18341;DHT22;9296;48.084;16.352;2023-03-01T16:09:21;8.80;99.90
18341;DHT22;9296;48.084;16.352;2023-03-01T16:11:48;8.70;99.90
18341;DHT22;9296;48.084;16.352;2023-03-01T16:14:15;8.70;99.90
18341;DHT22;9296;48.084;16.352;2023-03-01T16:20:09;8.70;99.90
18341;DHT22;9296;48.084;16.352;2023-03-01T16:22:36;8.80;99.90
18341;DHT22;9296;48.084;16.352;2023-03-01T16:25:03;8.80;99.90
18341;DHT22;9296;48.084;16.352;2023-03-01T16:27:31;8.70;99.90
18341;DHT22;9296;48.084;16.352;2023-03-01T16:29:58;8.70;99.90
18341;DHT22;9296;48.084;16.352;2023-03-01T16:32:45;8.70;99.90
18341;DHT22;9296;48.084;16.352;2023-03-01T16:35:15;8.70;99.90
18341;DHT22;9296;48.084;16.352;2023-03-01T16:37:42;8.70;99.90
18341;DHT22;9296;48.084;16.352;2023-03-01T16:40:16;8.70;99.90
18341;DHT22;9296;48.084;16.352;2023-03-01T16:42:44;8.80;99.90
18341;DHT22;9296;48.084;16.352;2023-03-01T16:45:11;8.80;99.90
18341;DHT22;9296;48.084;16.352;2023-03-01T16:47:38;8.80;99.90
18341;DHT22;9296;48.084;16.352;2023-03-01T16:50:05;8.80;99.90
18341;DHT22;9296;48.084;16.352;2023-03-01T16:52:33;8.90;99.90
18341;DHT22;9296;48.084;16.352;2023-03-01T16:55:02;8.90;99.90
18341;DHT22;9296;48.084;16.352;2023-03-01T16:57:29;8.90;99.90
18341;DHT22;9296;48.084;16.352;2023-03-01T16:59:56;8.90;99.90
18341;DHT22;9296;48.084;16.352;2023-03-01T17:02:43;8.80;99.90
18341;DHT22;9296;48.084;16.352;2023-03-01T17:05:10;8.80;99.90
18341;DHT22;9296;48.084;16.352;2023-03-01T17:07:39;8.80;99.90
18341;DHT22;9296;48.084;16.352;2023-03-01T17:10:09;8.70;99.90
18341;DHT22;9296;48.084;16.352;2023-03-01T17:12:37;8.70;99.90
18341;DHT22;9296;48.084;16.352;2023-03-01T17:15:05;8.80;99.90
18341;DHT22;9296;48.084;16.352;2023-03-01T17:17:32;8.70;99.90
18341;DHT22;9296;48.084;16.352;2023-03-01T17:20:00;8.70;99.90
18341;DHT22;9296;48.084;16.352;2023-03-01T17:22:27;8.70;99.90
18341;DHT22;9296;48.084;16.352;2023-03-01T17:24:55;8.80;99.90
18341;DHT22;9296;48.084;16.352;2023-03-01T17:27:22;8.70;99.90
18341;DHT22;9296;48.084;16.352;2023-03-01T17:29:48;8.70;99.90
18341;DHT22;9296;48.084;16.352;2023-03-01T17:32:15;8.60;99.90
18341;DHT22;9296;48.084;16.352;2023-03-01T17:34:42;8.50;99.90
18341;DHT22;9296;48.084;16.352;2023-03-01T17:37:10;8.60;99.90
18341;DHT22;9296;48.084;16.352;2023-03-01T17:39:37;8.60;99.90
18341;DHT22;9296;48.084;16.352;2023-03-01T17:42:06;8.60;99.90
18341;DHT22;9296;48.084;16.352;2023-03-01T17:44:33;8.50;99.90
18341;DHT22;9296;48.084;16.352;2023-03-01T17:47:01;8.50;99.90
18341;DHT22;9296;48.084;16.352;2023-03-01T17:49:28;8.40;99.90
18341;DHT22;9296;48.084;16.352;2023-03-01T17:51:55;8.40;99.90
18341;DHT22;9296;48.084;16.352;2023-03-01T17:54:22;8.40;99.90
18341;DHT22;9296;48.084;16.352;2023-03-01T17:56:49;8.40;99.90
18341;DHT22;9296;48.084;16.352;2023-03-01T17:59:18;8.40;99.90
18341;DHT22;9296;48.084;16.352;2023-03-01T18:01:45;8.30;99.90
18341;DHT22;9296;48.084;16.352;2023-03-01T18:04:12;8.30;99.90
18341;DHT22;9296;48.084;16.352;2023-03-01T18:06:39;8.20;99.90
18341;DHT22;9296;48.084;16.352;2023-03-01T18:09:06;8.20;99.90
18341;DHT22;9296;48.084;16.352;2023-03-01T18:11:34;8.10;99.90
18341;DHT22;9296;48.084;16.352;2023-03-01T18:14:02;8.00;99.90
18341;DHT22;9296;48.084;16.352;2023-03-01T18:16:49;7.90;99.90